sensor_id;sensor_type;location;lat;lon;timestamp;P1;durP1;ratioP1;P2;durP2;ratioP2
63016;SDS011;50274;45.640;11.756;2023-02-01T00:00:22;59.03;;;31.27;;
63016;SDS011;50274;45.640;11.756;2023-02-01T00:02:49;73.55;;;37.80;;
63016;SDS011;50274;45.640;11.756;2023-02-01T00:05:14;67.55;;;36.08;;
63016;SDS011;50274;45.640;11.756;2023-02-01T00:07:40;63.13;;;34.60;;
63016;SDS011;50274;45.640;11.756;2023-02-01T00:10:06;62.25;;;33.38;;
63016;SDS011;50274;45.640;11.756;2023-02-01T00:12:33;72.07;;;36.47;;
63016;SDS011;50274;45.640;11.756;2023-02-01T00:14:59;66.47;;;34.37;;
63016;SDS011;50274;45.640;11.756;2023-02-01T00:17:24;64.60;;;35.00;;
63016;SDS011;50274;45.640;11.756;2023-02-01T00:19:50;64.68;;;34.25;;
63016;SDS011;50274;45.640;11.756;2023-02-01T00:22:16;61.47;;;32.93;;
63016;SDS011;50274;45.640;11.756;2023-02-01T00:24:42;72.07;;;36.70;;
63016;SDS011;50274;45.640;11.756;2023-02-01T00:27:08;57.03;;;29.97;;
63016;SDS011;50274;45.640;11.756;2023-02-01T00:29:33;56.37;;;31.80;;
63016;SDS011;50274;45.640;11.756;2023-02-01T00:31:59;54.63;;;29.60;;
63016;SDS011;50274;45.640;11.756;2023-02-01T00:34:25;58.33;;;29.57;;
63016;SDS011;50274;45.640;11.756;2023-02-01T00:36:51;62.42;;;32.25;;
63016;SDS011;50274;45.640;11.756;2023-02-01T00:39:17;61.03;;;31.40;;
63016;SDS011;50274;45.640;11.756;2023-02-01T00:41:43;62.47;;;32.93;;
63016;SDS011;50274;45.640;11.756;2023-02-01T00:44:09;60.47;;;32.30;;
63016;SDS011;50274;45.640;11.756;2023-02-01T00:46:35;59.70;;;32.78;;
63016;SDS011;50274;45.640;11.756;2023-02-01T00:49:01;67.10;;;34.22;;
63016;SDS011;50274;45.640;11.756;2023-02-01T00:51:27;61.43;;;35.17;;
63016;SDS011;50274;45.640;11.756;2023-02-01T00:53:54;63.20;;;33.78;;
63016;SDS011;50274;45.640;11.756;2023-02-01T00:56:20;62.20;;;32.83;;
63016;SDS011;50274;45.640;11.756;2023-02-01T00:58:46;53.40;;;28.60;;
63016;SDS011;50274;45.640;11.756;2023-02-01T01:01:18;55.17;;;31.47;;
63016;SDS011;50274;45.640;11.756;2023-02-01T01:03:47;61.28;;;31.00;;
63016;SDS011;50274;45.640;11.756;2023-02-01T01:06:24;51.30;;;29.25;;
63016;SDS011;50274;45.640;11.756;2023-02-01T01:08:52;59.13;;;30.20;;
63016;SDS011;50274;45.640;11.756;2023-02-01T01:11:23;54.38;;;29.52;;
63016;SDS011;50274;45.640;11.756;2023-02-01T01:13:51;55.80;;;28.97;;
63016;SDS011;50274;45.640;11.756;2023-02-01T01:16:19;63.60;;;32.50;;
63016;SDS011;50274;45.640;11.756;2023-02-01T01:18:45;54.90;;;29.40;;
63016;SDS011;50274;45.640;11.756;2023-02-01T01:21:11;57.13;;;31.45;;
63016;SDS011;50274;45.640;11.756;2023-02-01T01:23:39;49.63;;;28.27;;
63016;SDS011;50274;45.640;11.756;2023-02-01T01:26:09;55.35;;;29.00;;
63016;SDS011;50274;45.640;11.756;2023-02-01T01:28:40;52.58;;;28.23;;
63016;SDS011;50274;45.640;11.756;2023-02-01T01:31:13;51.78;;;27.77;;
63016;SDS011;50274;45.640;11.756;2023-02-01T01:33:40;55.77;;;27.50;;
63016;SDS011;50274;45.640;11.756;2023-02-01T01:36:06;53.13;;;26.75;;
63016;SDS011;50274;45.640;11.756;2023-02-01T01:38:36;55.78;;;28.75;;
63016;SDS011;50274;45.640;11.756;2023-02-01T01:41:02;52.47;;;28.88;;
63016;SDS011;50274;45.640;11.756;2023-02-01T01:46:22;53.53;;;27.37;;
63016;SDS011;50274;45.640;11.756;2023-02-01T01:49:04;50.65;;;28.38;;
63016;SDS011;50274;45.640;11.756;2023-02-01T01:51:40;49.70;;;27.65;;
63016;SDS011;50274;45.640;11.756;2023-02-01T01:56:42;46.63;;;24.13;;
63016;SDS011;50274;45.640;11.756;2023-02-01T01:59:10;53.17;;;27.17;;
63016;SDS011;50274;45.640;11.756;2023-02-01T02:01:37;50.33;;;24.90;;
63016;SDS011;50274;45.640;11.756;2023-02-01T02:04:03;50.83;;;26.00;;
63016;SDS011;50274;45.640;11.756;2023-02-01T02:06:33;47.60;;;25.75;;
63016;SDS011;50274;45.640;11.756;2023-02-01T02:09:20;44.65;;;24.38;;
63016;SDS011;50274;45.640;11.756;2023-02-01T02:11:46;45.97;;;24.48;;
63016;SDS011;50274;45.640;11.756;2023-02-01T02:14:13;46.45;;;23.90;;
63016;SDS011;50274;45.640;11.756;2023-02-01T02:47:33;48.40;;;22.80;;
63016;SDS011;50274;45.640;11.756;2023-02-01T02:50:15;38.45;;;19.52;;
63016;SDS011;50274;45.640;11.756;2023-02-01T02:56:17;40.58;;;18.55;;
63016;SDS011;50274;45.640;11.756;2023-02-01T02:59:04;35.70;;;18.38;;
63016;SDS011;50274;45.640;11.756;2023-02-01T03:01:52;35.73;;;17.83;;
63016;SDS011;50274;45.640;11.756;2023-02-01T03:04:37;37.40;;;18.48;;
63016;SDS011;50274;45.640;11.756;2023-02-01T03:10:08;35.63;;;16.95;;
63016;SDS011;50274;45.640;11.756;2023-02-01T03:13:08;36.00;;;18.48;;
63016;SDS011;50274;45.640;11.756;2023-02-01T03:18:30;38.28;;;18.67;;
63016;SDS011;50274;45.640;11.756;2023-02-01T03:21:14;42.05;;;19.35;;
63016;SDS011;50274;45.640;11.756;2023-02-01T03:23:45;42.75;;;20.15;;
63016;SDS011;50274;45.640;11.756;2023-02-01T03:26:14;35.05;;;17.42;;
63016;SDS011;50274;45.640;11.756;2023-02-01T03:28:44;36.78;;;18.95;;
63016;SDS011;50274;45.640;11.756;2023-02-01T03:31:20;37.35;;;17.42;;
63016;SDS011;50274;45.640;11.756;2023-02-01T03:33:47;39.72;;;18.92;;
63016;SDS011;50274;45.640;11.756;2023-02-01T03:39:02;38.72;;;18.85;;
63016;SDS011;50274;45.640;11.756;2023-02-01T03:41:41;43.05;;;20.45;;
63016;SDS011;50274;45.640;11.756;2023-02-01T03:46:47;46.53;;;21.42;;
63016;SDS011;50274;45.640;11.756;2023-02-01T03:49:24;45.00;;;22.17;;
63016;SDS011;50274;45.640;11.756;2023-02-01T03:51:54;44.28;;;20.83;;
63016;SDS011;50274;45.640;11.756;2023-02-01T03:54:23;47.45;;;22.48;;
63016;SDS011;50274;45.640;11.756;2023-02-01T03:56:50;42.28;;;20.85;;
63016;SDS011;50274;45.640;11.756;2023-02-01T03:59:19;42.60;;;21.55;;
63016;SDS011;50274;45.640;11.756;2023-02-01T04:01:45;41.23;;;20.40;;
63016;SDS011;50274;45.640;11.756;2023-02-01T04:04:10;41.40;;;19.67;;
63016;SDS011;50274;45.640;11.756;2023-02-01T04:06:49;46.17;;;22.02;;
63016;SDS011;50274;45.640;11.756;2023-02-01T04:09:15;44.70;;;22.40;;
63016;SDS011;50274;45.640;11.756;2023-02-01T04:11:41;43.58;;;21.38;;
63016;SDS011;50274;45.640;11.756;2023-02-01T04:14:07;43.78;;;21.27;;
63016;SDS011;50274;45.640;11.756;2023-02-01T04:16:34;40.90;;;19.77;;
63016;SDS011;50274;45.640;11.756;2023-02-01T04:19:00;41.40;;;20.58;;
63016;SDS011;50274;45.640;11.756;2023-02-01T04:21:26;43.00;;;21.03;;
63016;SDS011;50274;45.640;11.756;2023-02-01T04:23:52;44.70;;;22.15;;
63016;SDS011;50274;45.640;11.756;2023-02-01T04:26:19;41.13;;;20.52;;
63016;SDS011;50274;45.640;11.756;2023-02-01T04:28:46;37.55;;;18.70;;
63016;SDS011;50274;45.640;11.756;2023-02-01T04:31:15;39.63;;;20.02;;
63016;SDS011;50274;45.640;11.756;2023-02-01T04:33:43;37.30;;;18.43;;
63016;SDS011;50274;45.640;11.756;2023-02-01T04:36:09;39.67;;;20.55;;
63016;SDS011;50274;45.640;11.756;2023-02-01T04:38:35;39.25;;;19.50;;
63016;SDS011;50274;45.640;11.756;2023-02-01T04:41:01;39.30;;;19.63;;
63016;SDS011;50274;45.640;11.756;2023-02-01T04:43:27;38.90;;;19.38;;
63016;SDS011;50274;45.640;11.756;2023-02-01T04:45:53;38.85;;;18.30;;
63016;SDS011;50274;45.640;11.756;2023-02-01T04:48:19;35.10;;;17.47;;
63016;SDS011;50274;45.640;11.756;2023-02-01T04:50:45;33.17;;;17.10;;
63016;SDS011;50274;45.640;11.756;2023-02-01T04:53:13;36.28;;;18.02;;
63016;SDS011;50274;45.640;11.756;2023-02-01T04:55:40;38.67;;;18.88;;
63016;SDS011;50274;45.640;11.756;2023-02-01T04:58:07;39.30;;;19.63;;
63016;SDS011;50274;45.640;11.756;2023-02-01T05:00:33;44.22;;;21.10;;
63016;SDS011;50274;45.640;11.756;2023-02-01T05:02:59;37.13;;;18.67;;
63016;SDS011;50274;45.640;11.756;2023-02-01T05:05:26;32.88;;;17.75;;
63016;SDS011;50274;45.640;11.756;2023-02-01T05:07:52;37.20;;;18.98;;
63016;SDS011;50274;45.640;11.756;2023-02-01T05:10:18;34.17;;;19.00;;
63016;SDS011;50274;45.640;11.756;2023-02-01T05:12:44;41.15;;;20.80;;
63016;SDS011;50274;45.640;11.756;2023-02-01T05:15:29;35.28;;;17.45;;
63016;SDS011;50274;45.640;11.756;2023-02-01T05:17:55;36.13;;;18.13;;
63016;SDS011;50274;45.640;11.756;2023-02-01T05:20:21;31.50;;;16.83;;
63016;SDS011;50274;45.640;11.756;2023-02-01T05:22:47;37.55;;;18.40;;
63016;SDS011;50274;45.640;11.756;2023-02-01T05:25:13;40.72;;;18.90;;
63016;SDS011;50274;45.640;11.756;2023-02-01T05:27:38;36.80;;;18.43;;
63016;SDS011;50274;45.640;11.756;2023-02-01T05:30:05;36.80;;;19.02;;
63016;SDS011;50274;45.640;11.756;2023-02-01T05:32:31;34.75;;;17.55;;
63016;SDS011;50274;45.640;11.756;2023-02-01T05:34:57;32.88;;;17.33;;
63016;SDS011;50274;45.640;11.756;2023-02-01T05:37:23;34.85;;;18.27;;
63016;SDS011;50274;45.640;11.756;2023-02-01T05:39:50;37.30;;;18.17;;
63016;SDS011;50274;45.640;11.756;2023-02-01T05:42:16;42.20;;;21.65;;
63016;SDS011;50274;45.640;11.756;2023-02-01T05:44:42;38.70;;;19.37;;
63016;SDS011;50274;45.640;11.756;2023-02-01T05:47:11;40.25;;;19.98;;
63016;SDS011;50274;45.640;11.756;2023-02-01T05:49:37;41.13;;;19.98;;
63016;SDS011;50274;45.640;11.756;2023-02-01T05:52:06;39.50;;;19.15;;
63016;SDS011;50274;45.640;11.756;2023-02-01T05:54:36;33.45;;;18.20;;
63016;SDS011;50274;45.640;11.756;2023-02-01T05:57:02;37.47;;;18.97;;
63016;SDS011;50274;45.640;11.756;2023-02-01T05:59:28;35.45;;;18.17;;
63016;SDS011;50274;45.640;11.756;2023-02-01T06:01:54;37.88;;;18.83;;
63016;SDS011;50274;45.640;11.756;2023-02-01T06:04:20;44.25;;;22.38;;
63016;SDS011;50274;45.640;11.756;2023-02-01T06:06:46;37.50;;;19.77;;
63016;SDS011;50274;45.640;11.756;2023-02-01T06:09:12;43.28;;;22.10;;
63016;SDS011;50274;45.640;11.756;2023-02-01T06:11:38;43.65;;;20.63;;
63016;SDS011;50274;45.640;11.756;2023-02-01T06:14:05;41.55;;;20.88;;
63016;SDS011;50274;45.640;11.756;2023-02-01T06:16:33;39.95;;;21.50;;
63016;SDS011;50274;45.640;11.756;2023-02-01T06:18:59;37.25;;;20.20;;
63016;SDS011;50274;45.640;11.756;2023-02-01T06:21:24;41.00;;;22.13;;
63016;SDS011;50274;45.640;11.756;2023-02-01T06:23:52;38.63;;;19.63;;
63016;SDS011;50274;45.640;11.756;2023-02-01T06:26:19;35.53;;;18.42;;
63016;SDS011;50274;45.640;11.756;2023-02-01T06:28:45;35.85;;;18.10;;
63016;SDS011;50274;45.640;11.756;2023-02-01T06:31:11;45.63;;;22.60;;
63016;SDS011;50274;45.640;11.756;2023-02-01T06:33:37;42.70;;;21.10;;
63016;SDS011;50274;45.640;11.756;2023-02-01T06:36:04;38.58;;;20.40;;
63016;SDS011;50274;45.640;11.756;2023-02-01T06:38:32;36.63;;;19.52;;
63016;SDS011;50274;45.640;11.756;2023-02-01T06:40:59;39.22;;;19.38;;
63016;SDS011;50274;45.640;11.756;2023-02-01T06:43:26;41.95;;;19.88;;
63016;SDS011;50274;45.640;11.756;2023-02-01T06:45:53;30.80;;;16.03;;
63016;SDS011;50274;45.640;11.756;2023-02-01T06:48:24;34.22;;;17.83;;
63016;SDS011;50274;45.640;11.756;2023-02-01T06:50:49;35.30;;;18.23;;
63016;SDS011;50274;45.640;11.756;2023-02-01T06:53:15;38.47;;;19.87;;
63016;SDS011;50274;45.640;11.756;2023-02-01T06:55:41;36.90;;;18.75;;
63016;SDS011;50274;45.640;11.756;2023-02-01T06:58:17;34.90;;;17.83;;
63016;SDS011;50274;45.640;11.756;2023-02-01T07:00:42;39.30;;;20.07;;
63016;SDS011;50274;45.640;11.756;2023-02-01T07:03:08;41.63;;;20.10;;
63016;SDS011;50274;45.640;11.756;2023-02-01T07:05:34;50.47;;;24.00;;
63016;SDS011;50274;45.640;11.756;2023-02-01T07:08:00;46.80;;;22.77;;
63016;SDS011;50274;45.640;11.756;2023-02-01T07:10:25;49.37;;;22.50;;
63016;SDS011;50274;45.640;11.756;2023-02-01T07:12:51;58.25;;;25.63;;
63016;SDS011;50274;45.640;11.756;2023-02-01T07:15:17;55.60;;;25.13;;
63016;SDS011;50274;45.640;11.756;2023-02-01T07:17:43;52.67;;;24.40;;
63016;SDS011;50274;45.640;11.756;2023-02-01T07:20:09;68.38;;;31.75;;
63016;SDS011;50274;45.640;11.756;2023-02-01T07:22:35;66.72;;;31.80;;
63016;SDS011;50274;45.640;11.756;2023-02-01T07:25:01;67.67;;;30.10;;
63016;SDS011;50274;45.640;11.756;2023-02-01T07:27:33;73.45;;;32.40;;
63016;SDS011;50274;45.640;11.756;2023-02-01T07:30:05;66.47;;;33.15;;
63016;SDS011;50274;45.640;11.756;2023-02-01T07:32:31;61.35;;;30.50;;
63016;SDS011;50274;45.640;11.756;2023-02-01T07:35:01;55.55;;;27.80;;
63016;SDS011;50274;45.640;11.756;2023-02-01T07:37:27;57.10;;;27.30;;
63016;SDS011;50274;45.640;11.756;2023-02-01T07:39:55;53.65;;;26.90;;
63016;SDS011;50274;45.640;11.756;2023-02-01T07:42:21;47.67;;;25.02;;
63016;SDS011;50274;45.640;11.756;2023-02-01T07:44:50;51.80;;;25.37;;
63016;SDS011;50274;45.640;11.756;2023-02-01T07:47:16;52.08;;;25.45;;
63016;SDS011;50274;45.640;11.756;2023-02-01T07:49:41;59.10;;;28.67;;
63016;SDS011;50274;45.640;11.756;2023-02-01T07:52:07;56.90;;;27.50;;
63016;SDS011;50274;45.640;11.756;2023-02-01T07:54:33;55.25;;;26.70;;
63016;SDS011;50274;45.640;11.756;2023-02-01T07:56:59;53.13;;;25.88;;
63016;SDS011;50274;45.640;11.756;2023-02-01T07:59:28;55.95;;;27.17;;
63016;SDS011;50274;45.640;11.756;2023-02-01T08:01:53;47.08;;;23.40;;
63016;SDS011;50274;45.640;11.756;2023-02-01T08:04:19;56.55;;;28.50;;
63016;SDS011;50274;45.640;11.756;2023-02-01T08:06:45;58.40;;;29.58;;
63016;SDS011;50274;45.640;11.756;2023-02-01T08:09:11;55.37;;;27.53;;
63016;SDS011;50274;45.640;11.756;2023-02-01T08:11:37;66.57;;;29.75;;
63016;SDS011;50274;45.640;11.756;2023-02-01T08:14:03;57.65;;;29.48;;
63016;SDS011;50274;45.640;11.756;2023-02-01T08:16:30;63.20;;;30.60;;
63016;SDS011;50274;45.640;11.756;2023-02-01T08:18:59;65.80;;;29.97;;
63016;SDS011;50274;45.640;11.756;2023-02-01T08:21:25;66.30;;;29.45;;
63016;SDS011;50274;45.640;11.756;2023-02-01T08:24:13;64.45;;;29.90;;
63016;SDS011;50274;45.640;11.756;2023-02-01T08:26:39;60.50;;;28.98;;
63016;SDS011;50274;45.640;11.756;2023-02-01T08:29:05;74.83;;;33.87;;
63016;SDS011;50274;45.640;11.756;2023-02-01T08:31:33;79.10;;;36.75;;
63016;SDS011;50274;45.640;11.756;2023-02-01T08:34:00;67.32;;;33.72;;
63016;SDS011;50274;45.640;11.756;2023-02-01T08:36:29;71.32;;;33.38;;
63016;SDS011;50274;45.640;11.756;2023-02-01T08:38:56;65.27;;;33.73;;
63016;SDS011;50274;45.640;11.756;2023-02-01T08:41:23;71.97;;;33.15;;
63016;SDS011;50274;45.640;11.756;2023-02-01T08:43:50;73.05;;;37.42;;
63016;SDS011;50274;45.640;11.756;2023-02-01T08:46:16;76.60;;;37.58;;
63016;SDS011;50274;45.640;11.756;2023-02-01T08:48:42;71.10;;;34.33;;
63016;SDS011;50274;45.640;11.756;2023-02-01T08:51:09;66.82;;;33.28;;
63016;SDS011;50274;45.640;11.756;2023-02-01T08:53:37;67.03;;;32.03;;
63016;SDS011;50274;45.640;11.756;2023-02-01T08:56:06;76.38;;;33.42;;
63016;SDS011;50274;45.640;11.756;2023-02-01T08:58:33;72.03;;;33.28;;
63016;SDS011;50274;45.640;11.756;2023-02-01T09:01:05;69.67;;;34.47;;
63016;SDS011;50274;45.640;11.756;2023-02-01T09:03:32;65.22;;;32.90;;
63016;SDS011;50274;45.640;11.756;2023-02-01T09:06:05;67.75;;;33.33;;
63016;SDS011;50274;45.640;11.756;2023-02-01T09:08:32;66.65;;;32.55;;
63016;SDS011;50274;45.640;11.756;2023-02-01T09:11:00;65.40;;;31.88;;
63016;SDS011;50274;45.640;11.756;2023-02-01T09:13:26;71.03;;;33.30;;
63016;SDS011;50274;45.640;11.756;2023-02-01T09:15:52;65.70;;;31.27;;
63016;SDS011;50274;45.640;11.756;2023-02-01T09:18:19;69.97;;;31.60;;
63016;SDS011;50274;45.640;11.756;2023-02-01T09:20:44;72.57;;;33.45;;
63016;SDS011;50274;45.640;11.756;2023-02-01T09:23:10;74.10;;;34.47;;
63016;SDS011;50274;45.640;11.756;2023-02-01T09:25:36;72.85;;;34.97;;
63016;SDS011;50274;45.640;11.756;2023-02-01T09:28:03;68.03;;;32.50;;
63016;SDS011;50274;45.640;11.756;2023-02-01T09:30:31;78.23;;;33.13;;
63016;SDS011;50274;45.640;11.756;2023-02-01T09:32:58;69.75;;;32.28;;
63016;SDS011;50274;45.640;11.756;2023-02-01T09:35:24;75.80;;;32.55;;
63016;SDS011;50274;45.640;11.756;2023-02-01T09:37:52;68.00;;;31.77;;
63016;SDS011;50274;45.640;11.756;2023-02-01T09:40:18;69.88;;;32.25;;
63016;SDS011;50274;45.640;11.756;2023-02-01T09:48:15;71.05;;;31.52;;
63016;SDS011;50274;45.640;11.756;2023-02-01T09:50:49;63.50;;;31.25;;
63016;SDS011;50274;45.640;11.756;2023-02-01T09:56:06;66.30;;;32.27;;
63016;SDS011;50274;45.640;11.756;2023-02-01T09:59:00;73.57;;;34.15;;
63016;SDS011;50274;45.640;11.756;2023-02-01T10:01:47;66.63;;;34.35;;
63016;SDS011;50274;45.640;11.756;2023-02-01T10:04:13;75.50;;;35.10;;
63016;SDS011;50274;45.640;11.756;2023-02-01T10:09:19;66.83;;;33.20;;
63016;SDS011;50274;45.640;11.756;2023-02-01T10:14:44;65.15;;;34.10;;
63016;SDS011;50274;45.640;11.756;2023-02-01T10:20:23;76.27;;;36.57;;
63016;SDS011;50274;45.640;11.756;2023-02-01T10:29:04;64.05;;;33.13;;
63016;SDS011;50274;45.640;11.756;2023-02-01T10:31:46;58.75;;;32.03;;
63016;SDS011;50274;45.640;11.756;2023-02-01T10:34:20;67.47;;;32.87;;
63016;SDS011;50274;45.640;11.756;2023-02-01T10:39:22;68.10;;;32.85;;
63016;SDS011;50274;45.640;11.756;2023-02-01T10:41:50;65.10;;;33.97;;
63016;SDS011;50274;45.640;11.756;2023-02-01T10:44:17;64.55;;;33.70;;
63016;SDS011;50274;45.640;11.756;2023-02-01T10:46:47;68.80;;;34.60;;
63016;SDS011;50274;45.640;11.756;2023-02-01T10:49:18;62.38;;;31.92;;
63016;SDS011;50274;45.640;11.756;2023-02-01T10:51:52;56.53;;;31.65;;
63016;SDS011;50274;45.640;11.756;2023-02-01T10:54:35;69.70;;;35.53;;
63016;SDS011;50274;45.640;11.756;2023-02-01T10:57:38;70.30;;;34.17;;
63016;SDS011;50274;45.640;11.756;2023-02-01T10:59:57;64.57;;;31.87;;
63016;SDS011;50274;45.640;11.756;2023-02-01T11:05:01;67.57;;;33.20;;
63016;SDS011;50274;45.640;11.756;2023-02-01T11:07:37;57.30;;;31.90;;
63016;SDS011;50274;45.640;11.756;2023-02-01T11:13:04;61.23;;;31.83;;
63016;SDS011;50274;45.640;11.756;2023-02-01T11:15:36;61.83;;;33.63;;
63016;SDS011;50274;45.640;11.756;2023-02-01T11:18:12;62.70;;;33.00;;
63016;SDS011;50274;45.640;11.756;2023-02-01T11:20:51;65.07;;;33.50;;
63016;SDS011;50274;45.640;11.756;2023-02-01T11:23:21;64.00;;;34.07;;
63016;SDS011;50274;45.640;11.756;2023-02-01T11:25:57;62.70;;;33.55;;
63016;SDS011;50274;45.640;11.756;2023-02-01T11:28:25;68.80;;;36.15;;
63016;SDS011;50274;45.640;11.756;2023-02-01T11:30:56;59.90;;;32.92;;
63016;SDS011;50274;45.640;11.756;2023-02-01T11:33:25;63.70;;;34.08;;
63016;SDS011;50274;45.640;11.756;2023-02-01T11:35:56;60.47;;;33.87;;
63016;SDS011;50274;45.640;11.756;2023-02-01T11:38:30;63.92;;;34.70;;
63016;SDS011;50274;45.640;11.756;2023-02-01T11:43:54;64.30;;;33.00;;
63016;SDS011;50274;45.640;11.756;2023-02-01T11:46:27;65.57;;;35.03;;
63016;SDS011;50274;45.640;11.756;2023-02-01T11:48:55;62.70;;;33.17;;
63016;SDS011;50274;45.640;11.756;2023-02-01T11:54:34;70.22;;;36.15;;
63016;SDS011;50274;45.640;11.756;2023-02-01T12:05:59;69.57;;;36.90;;
63016;SDS011;50274;45.640;11.756;2023-02-01T12:14:14;62.88;;;35.78;;
63016;SDS011;50274;45.640;11.756;2023-02-01T12:33:42;69.70;;;37.92;;
63016;SDS011;50274;45.640;11.756;2023-02-01T12:36:18;66.15;;;34.67;;
63016;SDS011;50274;45.640;11.756;2023-02-01T12:38:53;66.75;;;35.67;;
63016;SDS011;50274;45.640;11.756;2023-02-01T12:50:26;66.80;;;37.08;;
63016;SDS011;50274;45.640;11.756;2023-02-01T12:53:08;65.00;;;36.75;;
63016;SDS011;50274;45.640;11.756;2023-02-01T12:55:50;70.53;;;36.43;;
63016;SDS011;50274;45.640;11.756;2023-02-01T13:01:06;67.32;;;37.00;;
63016;SDS011;50274;45.640;11.756;2023-02-01T13:11:50;63.55;;;34.95;;
63016;SDS011;50274;45.640;11.756;2023-02-01T13:17:10;63.28;;;34.63;;
63016;SDS011;50274;45.640;11.756;2023-02-01T13:19:42;71.32;;;37.35;;
63016;SDS011;50274;45.640;11.756;2023-02-01T13:22:15;63.57;;;35.73;;
63016;SDS011;50274;45.640;11.756;2023-02-01T13:24:49;64.28;;;33.38;;
63016;SDS011;50274;45.640;11.756;2023-02-01T13:27:25;63.97;;;35.95;;
63016;SDS011;50274;45.640;11.756;2023-02-01T13:38:43;71.07;;;35.72;;
63016;SDS011;50274;45.640;11.756;2023-02-01T13:41:32;63.05;;;33.42;;
63016;SDS011;50274;45.640;11.756;2023-02-01T13:44:16;59.70;;;34.00;;
63016;SDS011;50274;45.640;11.756;2023-02-01T13:46:49;56.03;;;31.77;;
63016;SDS011;50274;45.640;11.756;2023-02-01T13:49:26;64.10;;;32.33;;
63016;SDS011;50274;45.640;11.756;2023-02-01T13:51:58;58.85;;;31.85;;
63016;SDS011;50274;45.640;11.756;2023-02-01T13:54:25;62.20;;;33.70;;
63016;SDS011;50274;45.640;11.756;2023-02-01T13:56:51;59.88;;;33.28;;
63016;SDS011;50274;45.640;11.756;2023-02-01T14:13:24;55.72;;;30.63;;
63016;SDS011;50274;45.640;11.756;2023-02-01T14:23:41;59.97;;;32.40;;
63016;SDS011;50274;45.640;11.756;2023-02-01T14:26:17;63.20;;;31.60;;
63016;SDS011;50274;45.640;11.756;2023-02-01T14:45:50;64.28;;;34.58;;
63016;SDS011;50274;45.640;11.756;2023-02-01T14:48:39;74.32;;;40.67;;
63016;SDS011;50274;45.640;11.756;2023-02-01T14:50:44;69.13;;;38.17;;
63016;SDS011;50274;45.640;11.756;2023-02-01T15:02:17;67.07;;;36.28;;
63016;SDS011;50274;45.640;11.756;2023-02-01T15:04:46;70.28;;;36.55;;
63016;SDS011;50274;45.640;11.756;2023-02-01T15:07:21;72.70;;;38.05;;
63016;SDS011;50274;45.640;11.756;2023-02-01T15:09:49;68.00;;;36.70;;
63016;SDS011;50274;45.640;11.756;2023-02-01T15:12:18;67.28;;;35.92;;
63016;SDS011;50274;45.640;11.756;2023-02-01T15:17:51;68.30;;;35.10;;
63016;SDS011;50274;45.640;11.756;2023-02-01T15:20:27;61.22;;;32.08;;
63016;SDS011;50274;45.640;11.756;2023-02-01T15:23:01;64.47;;;33.93;;
63016;SDS011;50274;45.640;11.756;2023-02-01T15:25:33;64.28;;;33.25;;
63016;SDS011;50274;45.640;11.756;2023-02-01T15:28:03;60.83;;;33.90;;
63016;SDS011;50274;45.640;11.756;2023-02-01T15:30:32;60.40;;;30.83;;
63016;SDS011;50274;45.640;11.756;2023-02-01T15:33:16;59.72;;;32.55;;
63016;SDS011;50274;45.640;11.756;2023-02-01T15:35:46;74.23;;;38.20;;
63016;SDS011;50274;45.640;11.756;2023-02-01T15:43:27;73.65;;;37.55;;
63016;SDS011;50274;45.640;11.756;2023-02-01T15:45:58;65.78;;;32.75;;
63016;SDS011;50274;45.640;11.756;2023-02-01T15:48:37;62.67;;;31.50;;
63016;SDS011;50274;45.640;11.756;2023-02-01T15:51:12;60.58;;;31.90;;
63016;SDS011;50274;45.640;11.756;2023-02-01T15:53:52;72.35;;;37.20;;
63016;SDS011;50274;45.640;11.756;2023-02-01T15:56:21;54.80;;;29.85;;
63016;SDS011;50274;45.640;11.756;2023-02-01T15:58:58;55.15;;;29.13;;
63016;SDS011;50274;45.640;11.756;2023-02-01T16:01:26;56.63;;;29.83;;
63016;SDS011;50274;45.640;11.756;2023-02-01T16:04:02;55.08;;;28.35;;
63016;SDS011;50274;45.640;11.756;2023-02-01T16:06:35;59.38;;;29.88;;
63016;SDS011;50274;45.640;11.756;2023-02-01T16:09:09;56.40;;;29.48;;
63016;SDS011;50274;45.640;11.756;2023-02-01T16:11:52;50.42;;;25.77;;
63016;SDS011;50274;45.640;11.756;2023-02-01T16:14:23;50.93;;;29.67;;
63016;SDS011;50274;45.640;11.756;2023-02-01T16:16:51;55.25;;;28.95;;
63016;SDS011;50274;45.640;11.756;2023-02-01T16:19:17;64.30;;;34.08;;
63016;SDS011;50274;45.640;11.756;2023-02-01T16:21:44;66.03;;;35.85;;
63016;SDS011;50274;45.640;11.756;2023-02-01T16:24:11;64.55;;;33.70;;
63016;SDS011;50274;45.640;11.756;2023-02-01T16:26:37;58.13;;;32.00;;
63016;SDS011;50274;45.640;11.756;2023-02-01T16:29:03;61.03;;;31.63;;
63016;SDS011;50274;45.640;11.756;2023-02-01T16:31:32;60.50;;;31.65;;
63016;SDS011;50274;45.640;11.756;2023-02-01T16:34:03;62.35;;;31.58;;
63016;SDS011;50274;45.640;11.756;2023-02-01T16:36:31;57.73;;;31.80;;
63016;SDS011;50274;45.640;11.756;2023-02-01T16:38:58;60.30;;;31.30;;
63016;SDS011;50274;45.640;11.756;2023-02-01T16:41:24;55.03;;;30.20;;
63016;SDS011;50274;45.640;11.756;2023-02-01T16:43:53;56.70;;;29.05;;
63016;SDS011;50274;45.640;11.756;2023-02-01T16:46:20;51.53;;;28.13;;
63016;SDS011;50274;45.640;11.756;2023-02-01T16:48:54;56.22;;;28.63;;
63016;SDS011;50274;45.640;11.756;2023-02-01T16:51:24;56.08;;;30.35;;
63016;SDS011;50274;45.640;11.756;2023-02-01T16:53:53;55.28;;;28.85;;
63016;SDS011;50274;45.640;11.756;2023-02-01T16:56:20;52.60;;;27.45;;
63016;SDS011;50274;45.640;11.756;2023-02-01T16:58:57;54.93;;;27.60;;
63016;SDS011;50274;45.640;11.756;2023-02-01T17:01:23;55.25;;;29.52;;
63016;SDS011;50274;45.640;11.756;2023-02-01T17:03:49;52.05;;;29.27;;
63016;SDS011;50274;45.640;11.756;2023-02-01T17:06:18;56.45;;;29.38;;
63016;SDS011;50274;45.640;11.756;2023-02-01T17:08:53;54.73;;;28.47;;
63016;SDS011;50274;45.640;11.756;2023-02-01T17:11:22;48.72;;;26.38;;
63016;SDS011;50274;45.640;11.756;2023-02-01T17:13:49;51.28;;;27.58;;
63016;SDS011;50274;45.640;11.756;2023-02-01T17:16:20;56.50;;;29.23;;
63016;SDS011;50274;45.640;11.756;2023-02-01T17:18:52;44.97;;;26.05;;
63016;SDS011;50274;45.640;11.756;2023-02-01T17:21:21;47.70;;;26.20;;
63016;SDS011;50274;45.640;11.756;2023-02-01T17:23:48;54.72;;;28.98;;
63016;SDS011;50274;45.640;11.756;2023-02-01T17:26:14;57.38;;;28.83;;
63016;SDS011;50274;45.640;11.756;2023-02-01T17:28:40;50.80;;;27.17;;
63016;SDS011;50274;45.640;11.756;2023-02-01T17:31:06;56.95;;;28.98;;
63016;SDS011;50274;45.640;11.756;2023-02-01T17:33:35;53.85;;;27.23;;
63016;SDS011;50274;45.640;11.756;2023-02-01T17:36:02;44.65;;;25.77;;
63016;SDS011;50274;45.640;11.756;2023-02-01T17:38:30;57.83;;;29.17;;
63016;SDS011;50274;45.640;11.756;2023-02-01T17:40:57;53.00;;;27.38;;
63016;SDS011;50274;45.640;11.756;2023-02-01T17:43:23;53.40;;;28.48;;
63016;SDS011;50274;45.640;11.756;2023-02-01T17:48:24;60.00;;;29.97;;
63016;SDS011;50274;45.640;11.756;2023-02-01T17:50:55;53.17;;;28.48;;